sensor_id;sensor_type;location;lat;lon;timestamp;pressure;altitude;pressure_sealevel;temperature;humidity
64908;BME280;51412;52.236;5.188;2022-07-04T00:01:08;101994.16;;;16.94;73.69
64908;BME280;51412;52.236;5.188;2022-07-04T00:03:35;101991.47;;;16.94;73.72
64908;BME280;51412;52.236;5.188;2022-07-04T00:06:01;101994.53;;;16.92;74.09
64908;BME280;51412;52.236;5.188;2022-07-04T00:08:28;101992.97;;;16.88;73.91
64908;BME280;51412;52.236;5.188;2022-07-04T00:10:54;101989.88;;;16.86;73.89
64908;BME280;51412;52.236;5.188;2022-07-04T00:13:22;101983.75;;;16.85;73.62
64908;BME280;51412;52.236;5.188;2022-07-04T00:15:49;101988.38;;;16.84;73.54
64908;BME280;51412;52.236;5.188;2022-07-04T00:18:15;101975.28;;;16.83;73.75
64908;BME280;51412;52.236;5.188;2022-07-04T00:20:42;101976.81;;;16.80;74.20
64908;BME280;51412;52.236;5.188;2022-07-04T00:23:08;101977.22;;;16.82;74.08
64908;BME280;51412;52.236;5.188;2022-07-04T00:25:35;101976.06;;;16.83;74.36
64908;BME280;51412;52.236;5.188;2022-07-04T00:28:01;101972.59;;;16.83;73.85
64908;BME280;51412;52.236;5.188;2022-07-04T00:30:29;101975.28;;;16.79;73.70
64908;BME280;51412;52.236;5.188;2022-07-04T00:32:56;101966.44;;;16.79;73.61
64908;BME280;51412;52.236;5.188;2022-07-04T00:35:22;101967.22;;;16.76;73.57
64908;BME280;51412;52.236;5.188;2022-07-04T00:37:50;101974.50;;;16.75;73.61
64908;BME280;51412;52.236;5.188;2022-07-04T00:40:16;101961.47;;;16.74;73.79
64908;BME280;51412;52.236;5.188;2022-07-04T00:42:43;101965.28;;;16.73;73.72
64908;BME280;51412;52.236;5.188;2022-07-04T00:45:10;101966.81;;;16.70;73.74
64908;BME280;51412;52.236;5.188;2022-07-04T00:47:38;101964.50;;;16.69;73.55
64908;BME280;51412;52.236;5.188;2022-07-04T00:50:04;101958.72;;;16.66;73.55
64908;BME280;51412;52.236;5.188;2022-07-04T00:52:33;101959.88;;;16.65;73.50
64908;BME280;51412;52.236;5.188;2022-07-04T00:55:00;101956.78;;;16.60;73.60
64908;BME280;51412;52.236;5.188;2022-07-04T00:57:27;101953.69;;;16.54;73.79
64908;BME280;51412;52.236;5.188;2022-07-04T00:59:53;101951.41;;;16.53;74.16
64908;BME280;51412;52.236;5.188;2022-07-04T01:02:20;101939.50;;;16.50;74.12
64908;BME280;51412;52.236;5.188;2022-07-04T01:04:48;101942.94;;;16.47;73.91
64908;BME280;51412;52.236;5.188;2022-07-04T01:07:14;101954.41;;;16.44;74.10
64908;BME280;51412;52.236;5.188;2022-07-04T01:09:41;101948.25;;;16.36;73.84
64908;BME280;51412;52.236;5.188;2022-07-04T01:12:08;101937.91;;;16.35;74.13
64908;BME280;51412;52.236;5.188;2022-07-04T01:14:37;101945.16;;;16.34;74.18
64908;BME280;51412;52.236;5.188;2022-07-04T01:17:04;101950.13;;;16.28;74.06
64908;BME280;51412;52.236;5.188;2022-07-04T01:19:30;101949.34;;;16.28;74.21
64908;BME280;51412;52.236;5.188;2022-07-04T01:22:04;101951.25;;;16.24;74.42
64908;BME280;51412;52.236;5.188;2022-07-04T01:24:31;101951.59;;;16.22;73.90
64908;BME280;51412;52.236;5.188;2022-07-04T01:26:58;101943.53;;;16.19;74.55
64908;BME280;51412;52.236;5.188;2022-07-04T01:29:24;101946.59;;;16.17;74.64
64908;BME280;51412;52.236;5.188;2022-07-04T01:31:51;101948.13;;;16.14;74.35
64908;BME280;51412;52.236;5.188;2022-07-04T01:34:18;101946.94;;;16.12;74.43
64908;BME280;51412;52.236;5.188;2022-07-04T01:36:45;101942.34;;;16.12;74.32
64908;BME280;51412;52.236;5.188;2022-07-04T01:39:13;101939.66;;;16.09;74.60
64908;BME280;51412;52.236;5.188;2022-07-04T01:41:39;101939.28;;;16.10;75.08
64908;BME280;51412;52.236;5.188;2022-07-04T01:44:06;101940.03;;;16.11;75.70
64908;BME280;51412;52.236;5.188;2022-07-04T01:46:32;101931.25;;;16.14;75.25
64908;BME280;51412;52.236;5.188;2022-07-04T01:48:59;101935.84;;;16.13;74.93
64908;BME280;51412;52.236;5.188;2022-07-04T01:51:25;101933.53;;;16.12;74.79
64908;BME280;51412;52.236;5.188;2022-07-04T01:53:52;101928.94;;;16.09;75.14
64908;BME280;51412;52.236;5.188;2022-07-04T01:56:19;101927.41;;;16.11;75.56
64908;BME280;51412;52.236;5.188;2022-07-04T01:58:46;101927.38;;;16.08;74.99
64908;BME280;51412;52.236;5.188;2022-07-04T02:01:13;101929.66;;;16.06;75.81
64908;BME280;51412;52.236;5.188;2022-07-04T02:03:57;101932.34;;;16.02;75.43
64908;BME280;51412;52.236;5.188;2022-07-04T02:06:24;101933.84;;;16.03;75.39
64908;BME280;51412;52.236;5.188;2022-07-04T02:08:51;101933.09;;;16.03;75.35
64908;BME280;51412;52.236;5.188;2022-07-04T02:11:37;101938.84;;;16.01;75.32
64908;BME280;51412;52.236;5.188;2022-07-04T02:14:21;101933.47;;;16.01;75.35
64908;BME280;51412;52.236;5.188;2022-07-04T02:16:48;101928.06;;;15.97;75.02
64908;BME280;51412;52.236;5.188;2022-07-04T02:19:15;101928.09;;;16.01;75.25
64908;BME280;51412;52.236;5.188;2022-07-04T02:21:42;101931.19;;;16.03;75.23
64908;BME280;51412;52.236;5.188;2022-07-04T02:24:08;101935.81;;;16.06;74.94
64908;BME280;51412;52.236;5.188;2022-07-04T02:26:37;101939.25;;;16.07;75.66
64908;BME280;51412;52.236;5.188;2022-07-04T02:29:03;101935.09;;;16.13;75.43
64908;BME280;51412;52.236;5.188;2022-07-04T02:31:30;101928.97;;;16.16;75.02
64908;BME280;51412;52.236;5.188;2022-07-04T02:33:56;101928.19;;;16.15;74.89
64908;BME280;51412;52.236;5.188;2022-07-04T02:36:23;101930.44;;;16.10;75.09
64908;BME280;51412;52.236;5.188;2022-07-04T02:38:49;101922.03;;;16.08;75.52
64908;BME280;51412;52.236;5.188;2022-07-04T02:41:16;101926.25;;;16.09;75.34
64908;BME280;51412;52.236;5.188;2022-07-04T02:43:43;101922.75;;;16.05;74.91
64908;BME280;51412;52.236;5.188;2022-07-04T02:46:10;101918.56;;;16.04;75.20
64908;BME280;51412;52.236;5.188;2022-07-04T02:48:36;101925.06;;;16.03;74.78
64908;BME280;51412;52.236;5.188;2022-07-04T02:51:03;101922.38;;;16.03;75.32
64908;BME280;51412;52.236;5.188;2022-07-04T02:53:29;101922.72;;;15.97;74.83
64908;BME280;51412;52.236;5.188;2022-07-04T02:55:56;101926.53;;;15.93;74.44
64908;BME280;51412;52.236;5.188;2022-07-04T02:58:22;101921.88;;;15.86;75.03
64908;BME280;51412;52.236;5.188;2022-07-04T03:00:50;101920.72;;;15.83;74.71
64908;BME280;51412;52.236;5.188;2022-07-04T03:03:17;101928.00;;;15.83;74.98
64908;BME280;51412;52.236;5.188;2022-07-04T03:05:43;101923.34;;;15.80;75.10
64908;BME280;51412;52.236;5.188;2022-07-04T03:08:10;101924.06;;;15.77;74.79
64908;BME280;51412;52.236;5.188;2022-07-04T03:10:37;101921.38;;;15.73;74.80
64908;BME280;51412;52.236;5.188;2022-07-04T03:13:03;101930.56;;;15.72;74.93
64908;BME280;51412;52.236;5.188;2022-07-04T03:15:29;101929.81;;;15.75;75.70
64908;BME280;51412;52.236;5.188;2022-07-04T03:17:57;101932.13;;;15.77;75.48
64908;BME280;51412;52.236;5.188;2022-07-04T03:20:24;101934.88;;;15.80;75.42
64908;BME280;51412;52.236;5.188;2022-07-04T03:22:50;101930.25;;;15.81;75.51
64908;BME280;51412;52.236;5.188;2022-07-04T03:25:19;101931.03;;;15.81;75.56
64908;BME280;51412;52.236;5.188;2022-07-04T03:27:46;101934.88;;;15.84;75.44
64908;BME280;51412;52.236;5.188;2022-07-04T03:30:13;101933.34;;;15.83;75.32
64908;BME280;51412;52.236;5.188;2022-07-04T03:32:39;101927.59;;;15.81;75.28
64908;BME280;51412;52.236;5.188;2022-07-04T03:35:08;101922.63;;;15.83;76.07
64908;BME280;51412;52.236;5.188;2022-07-04T03:37:34;101928.75;;;15.83;75.25
64908;BME280;51412;52.236;5.188;2022-07-04T03:40:01;101935.94;;;15.76;74.88
64908;BME280;51412;52.236;5.188;2022-07-04T03:42:27;101935.13;;;15.72;74.96
64908;BME280;51412;52.236;5.188;2022-07-04T03:44:54;101934.75;;;15.70;75.40
64908;BME280;51412;52.236;5.188;2022-07-04T03:47:20;101924.78;;;15.70;76.17
64908;BME280;51412;52.236;5.188;2022-07-04T03:49:47;101937.44;;;15.73;76.15
64908;BME280;51412;52.236;5.188;2022-07-04T03:52:15;101930.53;;;15.69;75.69
64908;BME280;51412;52.236;5.188;2022-07-04T03:54:41;101934.38;;;15.71;76.17
64908;BME280;51412;52.236;5.188;2022-07-04T03:57:08;101936.28;;;15.71;75.79
64908;BME280;51412;52.236;5.188;2022-07-04T03:59:34;101933.25;;;15.76;76.31
64908;BME280;51412;52.236;5.188;2022-07-04T04:02:01;101935.63;;;15.81;77.57
64908;BME280;51412;52.236;5.188;2022-07-04T04:04:27;101941.03;;;15.88;76.83
64908;BME280;51412;52.236;5.188;2022-07-04T04:07:11;101936.84;;;15.91;77.14
64908;BME280;51412;52.236;5.188;2022-07-04T04:09:39;101943.00;;;15.95;76.95
64908;BME280;51412;52.236;5.188;2022-07-04T04:12:06;101946.09;;;16.00;76.67
64908;BME280;51412;52.236;5.188;2022-07-04T04:14:32;101944.41;;;16.33;80.03
64908;BME280;51412;52.236;5.188;2022-07-04T04:16:59;101945.00;;;16.82;79.76
64908;BME280;51412;52.236;5.188;2022-07-04T04:19:25;101940.16;;;17.24;78.09
64908;BME280;51412;52.236;5.188;2022-07-04T04:21:52;101934.03;;;17.56;76.27
64908;BME280;51412;52.236;5.188;2022-07-04T04:24:18;101945.19;;;17.83;74.94
64908;BME280;51412;52.236;5.188;2022-07-04T04:26:46;101957.88;;;18.01;73.63
64908;BME280;51412;52.236;5.188;2022-07-04T04:29:13;101954.38;;;18.15;72.97
64908;BME280;51412;52.236;5.188;2022-07-04T04:31:39;101948.22;;;18.18;72.86
64908;BME280;51412;52.236;5.188;2022-07-04T04:34:06;101956.66;;;18.27;72.31
64908;BME280;51412;52.236;5.188;2022-07-04T04:36:33;101957.78;;;18.41;71.86
64908;BME280;51412;52.236;5.188;2022-07-04T04:38:59;101960.78;;;18.54;71.35
64908;BME280;51412;52.236;5.188;2022-07-04T04:41:26;101955.75;;;18.63;70.88
64908;BME280;51412;52.236;5.188;2022-07-04T04:43:53;101959.59;;;18.65;70.83
64908;BME280;51412;52.236;5.188;2022-07-04T04:46:20;101961.88;;;18.74;70.54
64908;BME280;51412;52.236;5.188;2022-07-04T04:48:47;101956.84;;;18.80;70.31
64908;BME280;51412;52.236;5.188;2022-07-04T04:51:14;101964.91;;;18.94;69.56
64908;BME280;51412;52.236;5.188;2022-07-04T04:53:40;101966.41;;;19.02;69.43
64908;BME280;51412;52.236;5.188;2022-07-04T04:56:07;101969.84;;;19.03;69.24
64908;BME280;51412;52.236;5.188;2022-07-04T04:58:33;101974.44;;;19.06;69.16
64908;BME280;51412;52.236;5.188;2022-07-04T05:01:01;101974.47;;;19.02;69.00
64908;BME280;51412;52.236;5.188;2022-07-04T05:03:28;101968.66;;;19.08;69.23
64908;BME280;51412;52.236;5.188;2022-07-04T05:05:54;101979.78;;;19.17;68.72
64908;BME280;51412;52.236;5.188;2022-07-04T05:08:21;101975.97;;;19.11;69.06
64908;BME280;51412;52.236;5.188;2022-07-04T05:10:49;101974.44;;;19.10;69.30
64908;BME280;51412;52.236;5.188;2022-07-04T05:13:16;101979.81;;;19.10;69.22
64908;BME280;51412;52.236;5.188;2022-07-04T05:15:43;101974.50;;;18.95;69.65
64908;BME280;51412;52.236;5.188;2022-07-04T05:18:11;101976.06;;;18.82;70.24
64908;BME280;51412;52.236;5.188;2022-07-04T05:20:37;101981.53;;;18.64;70.84
64908;BME280;51412;52.236;5.188;2022-07-04T05:23:05;101985.44;;;18.45;71.78
64908;BME280;51412;52.236;5.188;2022-07-04T05:25:31;101990.09;;;18.33;72.42
64908;BME280;51412;52.236;5.188;2022-07-04T05:27:58;101995.88;;;18.25;72.62
64908;BME280;51412;52.236;5.188;2022-07-04T05:30:25;101993.97;;;18.07;73.29
64908;BME280;51412;52.236;5.188;2022-07-04T05:32:52;102000.50;;;17.95;73.93
64908;BME280;51412;52.236;5.188;2022-07-04T05:35:19;101992.81;;;17.87;74.62
64908;BME280;51412;52.236;5.188;2022-07-04T05:37:46;101990.88;;;17.83;75.10
64908;BME280;51412;52.236;5.188;2022-07-04T05:40:12;101992.03;;;17.79;75.32
64908;BME280;51412;52.236;5.188;2022-07-04T05:42:39;101986.25;;;17.80;75.73
64908;BME280;51412;52.236;5.188;2022-07-04T05:45:06;101992.03;;;17.86;75.77
64908;BME280;51412;52.236;5.188;2022-07-04T05:47:33;101990.88;;;17.91;75.77
64908;BME280;51412;52.236;5.188;2022-07-04T05:49:59;101990.50;;;17.99;75.62
64908;BME280;51412;52.236;5.188;2022-07-04T05:52:27;101998.59;;;18.07;75.69
64908;BME280;51412;52.236;5.188;2022-07-04T05:54:54;101995.13;;;18.10;75.87
64908;BME280;51412;52.236;5.188;2022-07-04T05:57:20;101995.50;;;18.19;75.55
64908;BME280;51412;52.236;5.188;2022-07-04T05:59:47;101987.78;;;18.25;75.72
64908;BME280;51412;52.236;5.188;2022-07-04T06:02:14;101994.31;;;18.34;75.96
64908;BME280;51412;52.236;5.188;2022-07-04T06:04:40;101994.66;;;18.44;75.71
64908;BME280;51412;52.236;5.188;2022-07-04T06:07:08;101998.47;;;18.54;75.86
64908;BME280;51412;52.236;5.188;2022-07-04T06:09:36;101997.72;;;18.57;75.57
64908;BME280;51412;52.236;5.188;2022-07-04T06:12:03;101989.25;;;18.62;75.61
64908;BME280;51412;52.236;5.188;2022-07-04T06:14:30;101985.38;;;18.66;75.77
64908;BME280;51412;52.236;5.188;2022-07-04T06:16:57;101974.59;;;18.66;75.91
64908;BME280;51412;52.236;5.188;2022-07-04T06:19:23;101983.84;;;18.73;75.92
64908;BME280;51412;52.236;5.188;2022-07-04T06:21:50;101983.03;;;18.76;75.74
64908;BME280;51412;52.236;5.188;2022-07-04T06:24:16;101986.88;;;18.75;75.81
64908;BME280;51412;52.236;5.188;2022-07-04T06:26:45;101991.09;;;18.79;76.00
64908;BME280;51412;52.236;5.188;2022-07-04T06:29:11;101985.28;;;18.84;75.94
64908;BME280;51412;52.236;5.188;2022-07-04T06:31:38;101988.38;;;18.87;76.06
64908;BME280;51412;52.236;5.188;2022-07-04T06:34:05;101976.09;;;18.89;75.83
64908;BME280;51412;52.236;5.188;2022-07-04T06:36:48;101979.88;;;18.95;75.80
64908;BME280;51412;52.236;5.188;2022-07-04T06:39:15;101984.47;;;19.02;75.82
64908;BME280;51412;52.236;5.188;2022-07-04T06:41:41;101977.53;;;19.05;75.30
64908;BME280;51412;52.236;5.188;2022-07-04T06:44:09;101975.97;;;19.11;75.01
64908;BME280;51412;52.236;5.188;2022-07-04T06:46:36;101973.25;;;19.14;75.03
64908;BME280;51412;52.236;5.188;2022-07-04T06:49:02;101969.78;;;19.14;74.61
64908;BME280;51412;52.236;5.188;2022-07-04T06:51:29;101962.03;;;19.23;74.65
64908;BME280;51412;52.236;5.188;2022-07-04T06:53:55;101966.97;;;19.32;74.74
64908;BME280;51412;52.236;5.188;2022-07-04T06:56:22;101980.44;;;19.35;74.22
64908;BME280;51412;52.236;5.188;2022-07-04T06:58:49;101973.09;;;19.40;73.92
64908;BME280;51412;52.236;5.188;2022-07-04T07:01:17;101964.59;;;19.45;73.20
64908;BME280;51412;52.236;5.188;2022-07-04T07:03:43;101965.72;;;19.47;72.65
64908;BME280;51412;52.236;5.188;2022-07-04T07:06:10;101967.63;;;19.50;72.70
64908;BME280;51412;52.236;5.188;2022-07-04T07:08:36;101974.56;;;19.48;72.35
64908;BME280;51412;52.236;5.188;2022-07-04T07:11:03;101982.66;;;19.51;71.83
64908;BME280;51412;52.236;5.188;2022-07-04T07:13:39;101969.50;;;19.57;70.96
64908;BME280;51412;52.236;5.188;2022-07-04T07:16:05;101984.84;;;19.67;71.12
64908;BME280;51412;52.236;5.188;2022-07-04T07:18:33;101981.28;;;19.78;70.79
64908;BME280;51412;52.236;5.188;2022-07-04T07:21:00;101989.38;;;19.81;69.91
64908;BME280;51412;52.236;5.188;2022-07-04T07:23:26;101985.50;;;19.79;69.18
64908;BME280;51412;52.236;5.188;2022-07-04T07:25:53;101987.84;;;19.80;69.11
64908;BME280;51412;52.236;5.188;2022-07-04T07:28:19;101988.44;;;19.99;69.02
64908;BME280;51412;52.236;5.188;2022-07-04T07:30:46;101981.38;;;20.12;68.38
64908;BME280;51412;52.236;5.188;2022-07-04T07:33:12;101988.66;;;20.19;67.52
64908;BME280;51412;52.236;5.188;2022-07-04T07:35:40;101983.97;;;20.23;67.44
64908;BME280;51412;52.236;5.188;2022-07-04T07:38:07;101991.25;;;20.30;67.35
64908;BME280;51412;52.236;5.188;2022-07-04T07:40:33;101996.03;;;20.49;67.39
64908;BME280;51412;52.236;5.188;2022-07-04T07:43:01;102002.00;;;20.68;66.66
64908;BME280;51412;52.236;5.188;2022-07-04T07:45:27;101995.78;;;20.75;65.80
64908;BME280;51412;52.236;5.188;2022-07-04T07:47:54;101993.91;;;20.72;65.96
64908;BME280;51412;52.236;5.188;2022-07-04T07:50:20;101998.91;;;20.69;65.47
64908;BME280;51412;52.236;5.188;2022-07-04T07:52:48;101995.88;;;20.64;65.08
64908;BME280;51412;52.236;5.188;2022-07-04T07:55:15;101995.91;;;20.60;65.22
64908;BME280;51412;52.236;5.188;2022-07-04T07:57:41;101994.72;;;20.65;64.50
64908;BME280;51412;52.236;5.188;2022-07-04T08:00:09;101996.59;;;20.72;64.73
64908;BME280;51412;52.236;5.188;2022-07-04T08:02:36;101996.41;;;20.86;64.57
64908;BME280;51412;52.236;5.188;2022-07-04T08:05:21;102007.38;;;21.02;63.19
64908;BME280;51412;52.236;5.188;2022-07-04T08:07:48;102007.22;;;21.13;62.86
64908;BME280;51412;52.236;5.188;2022-07-04T08:10:15;102016.28;;;21.30;62.15
64908;BME280;51412;52.236;5.188;2022-07-04T08:12:42;102018.78;;;21.45;62.11
64908;BME280;51412;52.236;5.188;2022-07-04T08:15:08;102012.88;;;21.53;60.53
64908;BME280;51412;52.236;5.188;2022-07-04T08:17:35;102007.41;;;21.57;59.84
64908;BME280;51412;52.236;5.188;2022-07-04T08:20:03;102014.41;;;21.51;59.59
64908;BME280;51412;52.236;5.188;2022-07-04T08:22:29;102022.25;;;21.45;59.33
64908;BME280;51412;52.236;5.188;2022-07-04T08:24:57;102025.41;;;21.40;60.32
64908;BME280;51412;52.236;5.188;2022-07-04T08:27:24;102016.88;;;21.42;60.29
64908;BME280;51412;52.236;5.188;2022-07-04T08:29:50;102020.63;;;21.51;60.09
64908;BME280;51412;52.236;5.188;2022-07-04T08:32:17;102024.59;;;21.70;59.45
64908;BME280;51412;52.236;5.188;2022-07-04T08:34:43;102023.13;;;21.90;59.01
64908;BME280;51412;52.236;5.188;2022-07-04T08:37:11;102026.69;;;22.07;58.15
64908;BME280;51412;52.236;5.188;2022-07-04T08:39:37;102027.00;;;22.32;58.55
64908;BME280;51412;52.236;5.188;2022-07-04T08:42:10;102034.47;;;22.48;56.57
64908;BME280;51412;52.236;5.188;2022-07-04T08:44:50;102039.56;;;22.46;55.78
64908;BME280;51412;52.236;5.188;2022-07-04T08:47:18;102036.97;;;22.39;56.85
64908;BME280;51412;52.236;5.188;2022-07-04T08:49:52;102039.03;;;22.31;55.38
64908;BME280;51412;52.236;5.188;2022-07-04T08:52:27;102033.72;;;22.48;54.50
64908;BME280;51412;52.236;5.188;2022-07-04T08:54:57;102036.50;;;22.64;53.92
64908;BME280;51412;52.236;5.188;2022-07-04T08:57:43;102039.06;;;22.71;53.90
64908;BME280;51412;52.236;5.188;2022-07-04T09:00:28;102031.72;;;22.72;52.11
64908;BME280;51412;52.236;5.188;2022-07-04T09:02:55;102041.91;;;22.64;50.80
64908;BME280;51412;52.236;5.188;2022-07-04T09:05:22;102044.91;;;22.50;50.46
64908;BME280;51412;52.236;5.188;2022-07-04T09:07:50;102050.34;;;22.26;49.97
64908;BME280;51412;52.236;5.188;2022-07-04T09:10:17;102044.47;;;22.08;50.57
64908;BME280;51412;52.236;5.188;2022-07-04T09:12:45;102044.53;;;22.04;52.63
64908;BME280;51412;52.236;5.188;2022-07-04T09:15:11;102035.59;;;22.07;52.28
64908;BME280;51412;52.236;5.188;2022-07-04T09:17:38;102043.25;;;22.12;51.76
64908;BME280;51412;52.236;5.188;2022-07-04T09:20:13;102040.22;;;22.07;52.85
64908;BME280;51412;52.236;5.188;2022-07-04T09:22:40;102045.31;;;22.04;52.37
64908;BME280;51412;52.236;5.188;2022-07-04T09:25:07;102047.78;;;21.95;53.46
64908;BME280;51412;52.236;5.188;2022-07-04T09:27:35;102048.25;;;21.90;53.81
64908;BME280;51412;52.236;5.188;2022-07-04T09:30:04;102052.94;;;21.86;52.79
64908;BME280;51412;52.236;5.188;2022-07-04T09:32:38;102044.59;;;21.77;51.86
64908;BME280;51412;52.236;5.188;2022-07-04T09:35:07;102049.25;;;21.76;52.95
64908;BME280;51412;52.236;5.188;2022-07-04T09:37:36;102053.06;;;21.79;52.30
64908;BME280;51412;52.236;5.188;2022-07-04T09:40:04;102047.94;;;21.84;52.70
64908;BME280;51412;52.236;5.188;2022-07-04T09:42:38;102047.06;;;21.91;52.18
64908;BME280;51412;52.236;5.188;2022-07-04T09:45:08;102056.13;;;22.04;50.84
64908;BME280;51412;52.236;5.188;2022-07-04T09:47:35;102059.50;;;22.12;51.15
64908;BME280;51412;52.236;5.188;2022-07-04T09:50:04;102050.63;;;22.08;49.96
64908;BME280;51412;52.236;5.188;2022-07-04T09:52:44;102037.41;;;22.14;50.54
64908;BME280;51412;52.236;5.188;2022-07-04T09:55:10;102050.88;;;22.41;50.06
64908;BME280;51412;52.236;5.188;2022-07-04T09:57:37;102044.34;;;22.59;48.96
64908;BME280;51412;52.236;5.188;2022-07-04T10:00:19;102036.50;;;22.84;48.15
64908;BME280;51412;52.236;5.188;2022-07-04T10:02:46;102032.53;;;23.05;47.74
64908;BME280;51412;52.236;5.188;2022-07-04T10:05:18;102042.03;;;23.34;47.98
64908;BME280;51412;52.236;5.188;2022-07-04T10:07:45;102038.25;;;23.48;47.06
64908;BME280;51412;52.236;5.188;2022-07-04T10:10:34;102049.09;;;23.64;46.99
64908;BME280;51412;52.236;5.188;2022-07-04T10:13:10;102041.97;;;23.70;46.73
64908;BME280;51412;52.236;5.188;2022-07-04T10:15:39;102031.81;;;23.75;46.90
64908;BME280;51412;52.236;5.188;2022-07-04T10:18:07;102039.09;;;23.78;47.42
64908;BME280;51412;52.236;5.188;2022-07-04T10:20:34;102033.00;;;23.90;47.50
64908;BME280;51412;52.236;5.188;2022-07-04T10:23:02;102033.97;;;24.13;46.00
64908;BME280;51412;52.236;5.188;2022-07-04T10:25:28;102022.91;;;24.20;45.13
64908;BME280;51412;52.236;5.188;2022-07-04T10:27:55;102035.09;;;24.28;45.52
64908;BME280;51412;52.236;5.188;2022-07-04T10:30:24;102037.97;;;24.37;44.36
64908;BME280;51412;52.236;5.188;2022-07-04T10:32:53;102036.00;;;24.38;43.35
64908;BME280;51412;52.236;5.188;2022-07-04T10:35:46;102032.00;;;24.43;43.20
64908;BME280;51412;52.236;5.188;2022-07-04T10:38:14;102033.94;;;24.42;44.55
64908;BME280;51412;52.236;5.188;2022-07-04T10:40:44;102030.94;;;24.53;45.31
64908;BME280;51412;52.236;5.188;2022-07-04T10:46:47;102028.94;;;24.83;43.67
64908;BME280;51412;52.236;5.188;2022-07-04T10:49:26;102028.75;;;24.90;42.18
64908;BME280;51412;52.236;5.188;2022-07-04T10:51:56;102037.66;;;24.91;42.15
64908;BME280;51412;52.236;5.188;2022-07-04T10:54:31;102025.25;;;24.77;41.24
64908;BME280;51412;52.236;5.188;2022-07-04T10:57:09;102031.75;;;24.66;43.07
64908;BME280;51412;52.236;5.188;2022-07-04T10:59:36;102027.19;;;24.63;42.86
64908;BME280;51412;52.236;5.188;2022-07-04T11:02:28;102032.38;;;24.58;42.26
64908;BME280;51412;52.236;5.188;2022-07-04T11:05:02;102019.25;;;24.69;42.79
64908;BME280;51412;52.236;5.188;2022-07-04T11:07:59;102031.56;;;24.74;42.51
64908;BME280;51412;52.236;5.188;2022-07-04T11:10:26;102025.38;;;24.86;43.09
64908;BME280;51412;52.236;5.188;2022-07-04T11:13:15;102019.28;;;24.95;42.27
64908;BME280;51412;52.236;5.188;2022-07-04T11:16:01;102020.16;;;25.04;43.16
64908;BME280;51412;52.236;5.188;2022-07-04T11:18:28;102026.03;;;25.03;43.00
64908;BME280;51412;52.236;5.188;2022-07-04T11:20:57;102018.31;;;25.14;42.36
64908;BME280;51412;52.236;5.188;2022-07-04T11:23:23;102017.78;;;25.19;42.27
64908;BME280;51412;52.236;5.188;2022-07-04T11:25:51;102021.91;;;25.11;41.70
64908;BME280;51412;52.236;5.188;2022-07-04T11:28:20;102021.25;;;25.07;42.26
64908;BME280;51412;52.236;5.188;2022-07-04T11:30:50;102023.22;;;25.07;41.75
64908;BME280;51412;52.236;5.188;2022-07-04T11:33:18;102013.41;;;25.09;42.45
64908;BME280;51412;52.236;5.188;2022-07-04T11:36:03;102016.59;;;25.08;42.25
64908;BME280;51412;52.236;5.188;2022-07-04T11:38:43;102019.84;;;25.02;42.43
64908;BME280;51412;52.236;5.188;2022-07-04T11:41:10;102017.34;;;25.08;41.38
64908;BME280;51412;52.236;5.188;2022-07-04T11:43:54;102025.94;;;25.07;40.96
64908;BME280;51412;52.236;5.188;2022-07-04T11:46:39;102020.94;;;25.05;41.53
64908;BME280;51412;52.236;5.188;2022-07-04T11:49:09;102018.31;;;25.14;41.69
64908;BME280;51412;52.236;5.188;2022-07-04T11:51:42;102023.44;;;25.25;41.32
64908;BME280;51412;52.236;5.188;2022-07-04T11:54:09;102020.84;;;25.09;41.20
64908;BME280;51412;52.236;5.188;2022-07-04T11:56:36;102014.63;;;25.21;41.48
64908;BME280;51412;52.236;5.188;2022-07-04T11:59:10;102020.16;;;25.30;40.16
64908;BME280;51412;52.236;5.188;2022-07-04T12:01:36;102023.00;;;25.27;40.66
64908;BME280;51412;52.236;5.188;2022-07-04T12:04:11;102011.22;;;25.30;40.46
64908;BME280;51412;52.236;5.188;2022-07-04T12:06:38;102014.38;;;25.28;40.60
64908;BME280;51412;52.236;5.188;2022-07-04T12:09:06;102008.31;;;25.24;40.62
64908;BME280;51412;52.236;5.188;2022-07-04T12:11:56;102003.16;;;25.26;40.05
64908;BME280;51412;52.236;5.188;2022-07-04T12:14:24;101998.41;;;25.30;39.86
64908;BME280;51412;52.236;5.188;2022-07-04T12:17:12;101990.53;;;25.32;40.58
64908;BME280;51412;52.236;5.188;2022-07-04T12:19:50;102000.28;;;25.33;40.20
64908;BME280;51412;52.236;5.188;2022-07-04T12:22:25;101990.78;;;25.38;39.93
64908;BME280;51412;52.236;5.188;2022-07-04T12:24:53;101998.31;;;25.34;40.60
64908;BME280;51412;52.236;5.188;2022-07-04T12:27:19;101996.31;;;25.47;40.54
64908;BME280;51412;52.236;5.188;2022-07-04T12:29:46;101991.59;;;25.61;40.68
64908;BME280;51412;52.236;5.188;2022-07-04T12:32:13;102006.31;;;25.63;40.16
64908;BME280;51412;52.236;5.188;2022-07-04T12:34:40;102001.84;;;25.57;40.23
64908;BME280;51412;52.236;5.188;2022-07-04T12:37:09;101995.97;;;25.58;39.34
64908;BME280;51412;52.236;5.188;2022-07-04T12:39:37;102006.84;;;25.58;39.80
64908;BME280;51412;52.236;5.188;2022-07-04T12:42:10;102007.94;;;25.48;40.28
64908;BME280;51412;52.236;5.188;2022-07-04T12:44:38;101989.91;;;25.41;40.07
64908;BME280;51412;52.236;5.188;2022-07-04T12:47:06;101990.34;;;25.39;39.54
64908;BME280;51412;52.236;5.188;2022-07-04T12:49:33;101987.94;;;25.29;40.05
64908;BME280;51412;52.236;5.188;2022-07-04T12:52:08;101999.59;;;25.16;40.19
64908;BME280;51412;52.236;5.188;2022-07-04T12:54:35;101991.22;;;25.11;40.34
64908;BME280;51412;52.236;5.188;2022-07-04T12:57:09;101990.13;;;25.21;41.09
64908;BME280;51412;52.236;5.188;2022-07-04T12:59:36;101989.06;;;25.18;40.49
64908;BME280;51412;52.236;5.188;2022-07-04T13:02:03;101994.59;;;25.28;40.49